To NAV CANADA Home Page Login to a new session Search on AWWS site Feedback and Comments Disclaimer Vers la page française équivalente Tips FAQ What's new on the site To the Forecasts and Observations / NOTAM section To "File a Flight Plan" website Publications and other links Update of the User's profile FIC Telephone Numbers My Weather Data Folder Route Weather Data Regional Weather Data Local Weather Data To the Forecasts and Observations / NOTAM section
Request Generated 04/23/2014 at 22:04:33 UTC . Weather information available at that time is displayed.

METAR/TAF

REPULSE BAY/NU    

METAR CYUT 232200Z 32004KT 25SM BKN200 M14/M18 A3028 RMK CS6
-13.7/-19.3/0.0/8.0 HARD PACK LAST OBS/NXT 241200Z SLP258=
METAR CYUT 232100Z 34007KT 25SM FEW200 M14/M19 A3028 RMK CS1 CS TR
SLP257=
METAR CYUT 232000Z 33008KT 25SM FEW120 M14/M19 A3028 RMK AC1 AC TR
SLP256=

*** REMARK        : Forecast period has ended; this was the last TAF issued
*** REMARQUE : La période de prévision est échue; ceci était le dernier TAF qui a été émis
TAF CYUT 231838Z 2319/2322 35010KT P6SM SKC
RMK NXT FCST WILL BE ISSUED AT 241345Z=
Your time UTC time
Weather data provided by Environment Canada and NAV CANADA